createdAt,value
2022-08-03T00:00:27.883Z,20.30
2022-08-03T00:01:27.952Z,20.25
2022-08-03T00:02:28.031Z,20.19
2022-08-03T00:03:28.134Z,20.16
2022-08-03T00:04:34.129Z,20.16
2022-08-03T00:05:28.254Z,20.13
2022-08-03T00:06:28.353Z,20.13
2022-08-03T00:07:28.405Z,20.12
2022-08-03T00:08:28.485Z,20.12
2022-08-03T00:09:28.586Z,20.12
2022-08-03T00:10:28.657Z,20.10
2022-08-03T00:11:28.705Z,20.10
2022-08-03T00:12:28.787Z,20.08
2022-08-03T00:13:28.835Z,20.10
2022-08-03T00:14:28.941Z,20.08
2022-08-03T00:15:28.987Z,20.07
2022-08-03T00:16:29.064Z,20.08
2022-08-03T00:17:29.135Z,20.04
2022-08-03T00:18:29.248Z,20.02
2022-08-03T00:19:29.325Z,20.01
2022-08-03T00:20:29.404Z,20.00
2022-08-03T00:21:29.463Z,19.98
2022-08-03T00:22:29.529Z,19.95
2022-08-03T00:23:50.914Z,19.94
2022-08-03T00:24:29.744Z,19.94
2022-08-03T00:25:29.791Z,19.94
2022-08-03T00:26:29.868Z,19.94
2022-08-03T00:27:29.958Z,19.90
2022-08-03T00:28:30.041Z,19.90
2022-08-03T00:29:30.124Z,19.90
2022-08-03T00:30:31.006Z,19.90
2022-08-03T00:31:51.631Z,19.90
2022-08-03T00:32:30.348Z,19.89
2022-08-03T00:33:30.437Z,19.86
2022-08-03T00:34:36.375Z,19.85
2022-08-03T00:35:41.104Z,19.86
2022-08-03T00:36:30.653Z,19.83
2022-08-03T00:37:41.292Z,19.82
2022-08-03T00:38:30.790Z,19.80
2022-08-03T00:39:30.889Z,19.79
2022-08-03T00:40:30.941Z,19.78
2022-08-03T00:41:31.013Z,19.75
2022-08-03T00:42:31.064Z,19.72
2022-08-03T00:43:31.141Z,19.72
2022-08-03T00:44:31.264Z,19.70
2022-08-03T00:45:31.343Z,19.68
2022-08-03T00:46:31.411Z,19.65
2022-08-03T00:47:31.490Z,19.68
2022-08-03T00:48:33.620Z,19.61
2022-08-03T00:49:31.717Z,19.60
2022-08-03T00:50:31.684Z,19.58
2022-08-03T00:51:31.759Z,19.60
2022-08-03T00:52:31.855Z,19.58
2022-08-03T00:53:31.933Z,19.57
2022-08-03T00:54:32.132Z,19.57
2022-08-03T00:55:32.068Z,19.53
2022-08-03T00:56:32.128Z,19.57
2022-08-03T00:57:32.203Z,19.57
2022-08-03T00:58:32.260Z,19.55
2022-08-03T00:59:32.369Z,19.53
2022-08-03T01:00:32.414Z,19.53
2022-08-03T01:01:32.897Z,19.52
2022-08-03T01:02:32.565Z,19.50
2022-08-03T01:03:32.663Z,19.52
2022-08-03T01:04:32.739Z,19.47
2022-08-03T01:05:32.819Z,19.46
2022-08-03T01:06:32.867Z,19.45
2022-08-03T01:07:32.947Z,19.45
2022-08-03T01:08:32.998Z,19.47
2022-08-03T01:09:33.093Z,19.45
2022-08-03T01:10:33.155Z,19.43
2022-08-03T01:11:33.233Z,19.45
2022-08-03T01:12:33.283Z,19.45
2022-08-03T01:14:00.302Z,19.45
2022-08-03T01:14:33.466Z,19.47
2022-08-03T01:15:33.541Z,19.47
2022-08-03T01:16:37.081Z,19.47
2022-08-03T01:17:33.696Z,19.47
2022-08-03T01:18:33.748Z,19.46
2022-08-03T01:19:33.842Z,19.47
2022-08-03T01:20:33.907Z,19.46
2022-08-03T01:21:33.986Z,19.43
2022-08-03T01:22:34.037Z,19.43
2022-08-03T01:23:34.117Z,19.42
2022-08-03T01:24:34.194Z,19.39
2022-08-03T01:25:34.272Z,19.39
2022-08-03T01:26:34.324Z,19.38
2022-08-03T01:27:34.424Z,19.35
2022-08-03T01:28:34.473Z,19.35
2022-08-03T01:29:34.565Z,19.32
2022-08-03T01:30:34.613Z,19.31
2022-08-03T01:31:34.693Z,19.28
2022-08-03T01:33:00.521Z,19.27
2022-08-03T01:33:34.850Z,19.25
2022-08-03T01:34:34.915Z,19.24
2022-08-03T01:35:38.355Z,19.23
2022-08-03T01:36:35.071Z,19.21
2022-08-03T01:37:35.154Z,19.24
2022-08-03T01:38:35.227Z,19.24
2022-08-03T01:39:35.335Z,19.23
2022-08-03T01:40:35.385Z,19.13
2022-08-03T01:41:35.460Z,19.13
2022-08-03T01:42:35.511Z,19.13
2022-08-03T01:44:28.398Z,19.13
2022-08-03T01:44:35.670Z,19.10
2022-08-03T01:45:35.745Z,19.12
2022-08-03T01:46:35.793Z,19.13
2022-08-03T01:47:35.876Z,19.12
2022-08-03T01:48:35.922Z,19.13
2022-08-03T01:49:36.072Z,19.10
2022-08-03T01:50:36.052Z,19.09
2022-08-03T01:52:03.098Z,19.07
2022-08-03T01:52:36.192Z,19.07
2022-08-03T01:53:36.274Z,19.06
2022-08-03T01:54:36.349Z,19.06
2022-08-03T01:55:36.419Z,19.06
2022-08-03T01:56:36.487Z,19.05
2022-08-03T01:58:05.635Z,19.07
2022-08-03T01:58:36.619Z,19.10
2022-08-03T01:59:36.714Z,19.07
2022-08-03T02:00:36.767Z,19.06
2022-08-03T02:02:29.142Z,19.02
2022-08-03T02:02:38.742Z,19.02
2022-08-03T02:03:36.995Z,19.02
2022-08-03T02:04:37.104Z,19.01
2022-08-03T02:05:37.185Z,19.05
2022-08-03T02:06:58.979Z,19.07
2022-08-03T02:07:37.341Z,19.07
2022-08-03T02:08:37.388Z,19.05
2022-08-03T02:09:37.569Z,19.06
2022-08-03T02:10:37.537Z,19.05
2022-08-03T02:11:37.616Z,19.02
2022-08-03T02:12:37.666Z,19.01
2022-08-03T02:13:37.741Z,18.99
2022-08-03T02:14:37.808Z,18.93
2022-08-03T02:15:37.950Z,18.93
2022-08-03T02:16:37.930Z,18.90
2022-08-03T02:17:40.113Z,18.91
2022-08-03T02:18:38.068Z,18.90
2022-08-03T02:19:38.190Z,18.86
2022-08-03T02:20:38.238Z,18.84
2022-08-03T02:21:56.602Z,18.86
2022-08-03T02:22:38.375Z,18.86
2022-08-03T02:23:38.452Z,18.84
2022-08-03T02:24:38.527Z,18.83
2022-08-03T02:25:38.607Z,18.86
2022-08-03T02:26:38.657Z,18.86
2022-08-03T02:27:43.363Z,18.84
2022-08-03T02:28:38.786Z,18.84
2022-08-03T02:29:40.960Z,18.86
2022-08-03T02:30:38.937Z,18.75
2022-08-03T02:31:39.019Z,18.74
2022-08-03T02:32:39.087Z,18.74
2022-08-03T02:33:39.183Z,18.74
2022-08-03T02:34:39.254Z,18.62
2022-08-03T02:35:39.313Z,18.64
2022-08-03T02:36:39.362Z,18.56
2022-08-03T02:37:39.462Z,18.42
2022-08-03T02:38:39.530Z,18.32
2022-08-03T02:39:39.627Z,18.19
2022-08-03T02:40:39.670Z,18.01
2022-08-03T02:41:39.748Z,17.83
2022-08-03T02:42:39.806Z,17.76
2022-08-03T02:44:05.646Z,17.74
2022-08-03T02:44:39.957Z,17.81
2022-08-03T02:45:45.052Z,17.87
2022-08-03T02:46:40.076Z,17.94
2022-08-03T02:47:53.261Z,17.99
2022-08-03T02:48:40.211Z,18.05
2022-08-03T02:49:50.777Z,18.10
2022-08-03T02:50:40.345Z,18.16
2022-08-03T02:51:40.421Z,18.21
2022-08-03T02:52:40.474Z,18.23
2022-08-03T02:53:40.554Z,18.26
2022-08-03T02:54:40.629Z,18.29
2022-08-03T02:55:43.279Z,18.29
2022-08-03T02:56:40.766Z,18.34
2022-08-03T02:57:40.846Z,18.38
2022-08-03T02:58:40.902Z,18.39
2022-08-03T02:59:40.996Z,18.39
2022-08-03T03:00:41.090Z,18.41
2022-08-03T03:01:41.118Z,18.41
2022-08-03T03:02:43.857Z,18.42
2022-08-03T03:03:44.816Z,18.41
2022-08-03T03:04:56.198Z,18.42
2022-08-03T03:05:59.784Z,18.42
2022-08-03T03:06:41.475Z,18.42
2022-08-03T03:07:51.866Z,18.46
2022-08-03T03:08:41.607Z,18.46
2022-08-03T03:09:43.258Z,18.47
2022-08-03T03:10:41.763Z,18.46
2022-08-03T03:11:41.831Z,18.49
2022-08-03T03:12:41.897Z,18.50
2022-08-03T03:13:41.977Z,18.49
2022-08-03T03:14:42.042Z,18.50
2022-08-03T03:15:42.108Z,18.50
2022-08-03T03:16:42.159Z,18.51
2022-08-03T03:17:42.236Z,18.51
2022-08-03T03:18:42.291Z,18.57
2022-08-03T03:19:42.385Z,18.54
2022-08-03T03:20:42.431Z,18.56
2022-08-03T03:21:42.510Z,18.56
2022-08-03T03:22:45.331Z,18.54
2022-08-03T03:23:42.649Z,18.57
2022-08-03T03:24:42.710Z,18.59
2022-08-03T03:25:42.776Z,18.59
2022-08-03T03:26:42.825Z,18.59
2022-08-03T03:27:42.904Z,18.62
2022-08-03T03:28:42.969Z,18.62
2022-08-03T03:29:43.074Z,18.59
2022-08-03T03:30:43.110Z,18.59
2022-08-03T03:31:43.193Z,18.62
2022-08-03T03:32:43.267Z,18.64
2022-08-03T03:33:43.357Z,18.64
2022-08-03T03:34:43.444Z,18.64
2022-08-03T03:35:43.529Z,18.65
2022-08-03T03:36:43.599Z,18.65
2022-08-03T03:37:43.691Z,18.66
2022-08-03T03:38:43.744Z,18.65
2022-08-03T03:39:43.839Z,18.65
2022-08-03T03:40:43.887Z,18.66
2022-08-03T03:41:43.971Z,18.66
2022-08-03T03:42:44.023Z,18.66
2022-08-03T03:43:44.105Z,18.64
2022-08-03T03:44:44.196Z,18.64
2022-08-03T03:45:44.284Z,18.62
2022-08-03T03:46:44.336Z,18.60
2022-08-03T03:47:44.410Z,18.60
2022-08-03T03:48:44.498Z,18.59
2022-08-03T03:49:44.588Z,18.60
2022-08-03T03:50:44.632Z,18.59
2022-08-03T03:51:44.744Z,18.59
2022-08-03T03:52:44.818Z,18.57
2022-08-03T03:53:44.892Z,18.57
2022-08-03T03:54:44.994Z,18.57
2022-08-03T03:55:59.389Z,18.57
2022-08-03T03:56:45.108Z,18.59
2022-08-03T03:57:45.185Z,18.56
2022-08-03T03:58:45.235Z,18.54
2022-08-03T03:59:45.347Z,18.54
2022-08-03T04:00:45.416Z,18.51
2022-08-03T04:01:45.488Z,18.50
2022-08-03T04:02:45.540Z,18.51
2022-08-03T04:03:45.617Z,18.50
2022-08-03T04:04:45.695Z,18.49
2022-08-03T04:05:46.086Z,18.49
2022-08-03T04:06:45.851Z,18.47
2022-08-03T04:07:45.923Z,18.46
2022-08-03T04:08:45.973Z,18.41
2022-08-03T04:09:46.075Z,18.41
2022-08-03T04:10:46.123Z,18.39
2022-08-03T04:11:46.202Z,18.38
2022-08-03T04:12:50.337Z,18.36
2022-08-03T04:13:46.389Z,18.36
2022-08-03T04:14:46.495Z,18.35
2022-08-03T04:15:46.571Z,18.41
2022-08-03T04:16:46.656Z,18.46
2022-08-03T04:17:46.737Z,18.47
2022-08-03T04:18:46.822Z,18.50
2022-08-03T04:19:46.919Z,18.51
2022-08-03T04:20:47.626Z,18.50
2022-08-03T04:21:47.052Z,18.54
2022-08-03T04:22:47.101Z,18.54
2022-08-03T04:23:47.176Z,18.56
2022-08-03T04:24:47.268Z,18.53
2022-08-03T04:25:47.344Z,18.54
2022-08-03T04:26:52.247Z,18.56
2022-08-03T04:28:07.570Z,18.59
2022-08-03T04:28:47.570Z,18.60
2022-08-03T04:29:48.470Z,18.60
2022-08-03T04:30:47.714Z,18.60
2022-08-03T04:31:47.794Z,18.59
2022-08-03T04:32:47.883Z,18.59
2022-08-03T04:33:47.960Z,18.59
2022-08-03T04:34:48.058Z,18.59
2022-08-03T04:36:01.657Z,18.57
2022-08-03T04:36:48.199Z,18.59
2022-08-03T04:37:48.245Z,18.57
2022-08-03T04:38:48.324Z,18.59
2022-08-03T04:39:48.408Z,18.60
2022-08-03T04:40:48.489Z,18.60
2022-08-03T04:42:04.315Z,18.59
2022-08-03T04:42:48.639Z,18.59
2022-08-03T04:43:48.691Z,18.59
2022-08-03T04:44:48.792Z,18.59
2022-08-03T04:45:48.847Z,18.59
2022-08-03T04:46:50.543Z,18.59
2022-08-03T04:47:49.024Z,18.60
2022-08-03T04:48:49.107Z,18.59
2022-08-03T04:49:49.200Z,18.60
2022-08-03T04:50:49.248Z,18.59
2022-08-03T04:51:49.327Z,18.60
2022-08-03T04:52:49.416Z,18.62
2022-08-03T04:53:49.497Z,18.54
2022-08-03T04:54:50.898Z,18.47
2022-08-03T04:55:49.699Z,18.49
2022-08-03T04:56:49.747Z,18.53
2022-08-03T04:57:49.832Z,18.60
2022-08-03T04:58:49.879Z,18.64
2022-08-03T04:59:49.986Z,18.69
2022-08-03T05:00:50.036Z,18.74
2022-08-03T05:01:50.177Z,18.76
2022-08-03T05:02:50.194Z,18.82
2022-08-03T05:03:50.272Z,18.84
2022-08-03T05:04:50.368Z,18.87
2022-08-03T05:05:50.923Z,18.89
2022-08-03T05:06:54.930Z,18.91
2022-08-03T05:07:50.597Z,18.94
2022-08-03T05:08:50.880Z,18.99
2022-08-03T05:09:52.715Z,19.02
2022-08-03T05:10:50.811Z,19.06
2022-08-03T05:11:50.888Z,19.07
2022-08-03T05:12:50.937Z,19.10
2022-08-03T05:13:51.032Z,19.13
2022-08-03T05:14:51.135Z,19.16
2022-08-03T05:15:51.215Z,19.20
2022-08-03T05:16:51.304Z,19.24
2022-08-03T05:17:51.394Z,19.27
2022-08-03T05:18:51.454Z,19.28
2022-08-03T05:19:51.555Z,19.32
2022-08-03T05:20:51.613Z,19.35
2022-08-03T05:21:52.466Z,19.39
2022-08-03T05:22:51.767Z,19.42
2022-08-03T05:23:51.849Z,19.42
2022-08-03T05:24:51.938Z,19.43
2022-08-03T05:25:52.001Z,19.46
2022-08-03T05:26:52.073Z,19.52
2022-08-03T05:27:52.162Z,19.55
2022-08-03T05:28:52.226Z,19.57
2022-08-03T05:29:52.324Z,19.60
2022-08-03T05:30:52.364Z,19.62
2022-08-03T05:31:52.449Z,19.62
2022-08-03T05:32:52.521Z,19.64
2022-08-03T05:33:52.604Z,19.65
2022-08-03T05:34:52.662Z,19.67
2022-08-03T05:36:02.451Z,19.70
2022-08-03T05:36:52.820Z,19.71
2022-08-03T05:37:54.851Z,19.78
2022-08-03T05:38:52.970Z,19.83
2022-08-03T05:39:53.071Z,19.85
2022-08-03T05:40:57.283Z,19.87
2022-08-03T05:41:53.214Z,19.94
2022-08-03T05:42:53.264Z,20.00
2022-08-03T05:43:53.361Z,20.07
2022-08-03T05:44:53.428Z,20.16
2022-08-03T05:46:11.431Z,20.20
2022-08-03T05:46:53.567Z,20.26
2022-08-03T05:47:53.656Z,20.31
2022-08-03T05:48:53.713Z,20.33
2022-08-03T05:49:53.824Z,20.37
2022-08-03T05:50:53.859Z,20.41
2022-08-03T05:52:00.199Z,20.42
2022-08-03T05:52:54.018Z,20.44
2022-08-03T05:53:54.104Z,20.46
2022-08-03T05:54:56.485Z,20.50
2022-08-03T05:55:58.026Z,20.53
2022-08-03T05:56:54.368Z,20.57
2022-08-03T05:57:55.190Z,20.64
2022-08-03T05:58:54.503Z,20.83
2022-08-03T05:59:58.573Z,21.22
2022-08-03T06:00:54.662Z,21.71
2022-08-03T06:01:54.813Z,22.15
2022-08-03T06:02:54.840Z,22.64
2022-08-03T06:03:54.920Z,23.18
2022-08-03T06:04:55.004Z,23.56
2022-08-03T06:06:00.377Z,23.90
2022-08-03T06:06:55.112Z,24.37
2022-08-03T06:07:55.188Z,24.83
2022-08-03T06:08:55.270Z,25.23
2022-08-03T06:10:36.560Z,25.71
2022-08-03T06:10:55.427Z,26.20
2022-08-03T06:11:55.593Z,26.69
2022-08-03T06:12:55.555Z,27.15
2022-08-03T06:13:55.633Z,27.59
2022-08-03T06:14:55.701Z,28.03
2022-08-03T06:15:55.756Z,28.38
2022-08-03T06:16:55.841Z,28.65
2022-08-03T06:18:00.004Z,29.03
2022-08-03T06:18:55.978Z,29.52
2022-08-03T06:19:56.109Z,29.95
2022-08-03T06:20:56.115Z,30.36
2022-08-03T06:21:56.195Z,30.70
2022-08-03T06:23:01.021Z,30.97
2022-08-03T06:23:56.358Z,31.20
2022-08-03T06:24:56.487Z,31.45
2022-08-03T06:25:56.521Z,31.62
2022-08-03T06:26:56.601Z,31.94
2022-08-03T06:27:56.678Z,32.05
2022-08-03T06:28:56.765Z,31.97
2022-08-03T06:29:56.857Z,31.91
2022-08-03T06:30:57.897Z,31.74
2022-08-03T06:31:56.990Z,31.68
2022-08-03T06:32:57.078Z,31.94
2022-08-03T06:34:33.441Z,32.07
2022-08-03T06:34:57.232Z,32.13
2022-08-03T06:35:57.285Z,32.13
2022-08-03T06:37:01.678Z,32.39
2022-08-03T06:37:57.451Z,32.81
2022-08-03T06:38:57.537Z,33.18
2022-08-03T06:39:57.834Z,33.63
2022-08-03T06:40:57.683Z,34.09
2022-08-03T06:41:57.768Z,34.50
2022-08-03T06:42:57.853Z,34.83
2022-08-03T06:44:03.608Z,35.03
2022-08-03T06:44:58.042Z,34.99
2022-08-03T06:45:58.084Z,34.94
2022-08-03T06:46:58.167Z,35.10
2022-08-03T06:47:58.243Z,35.28
2022-08-03T06:48:58.392Z,35.47
2022-08-03T06:50:12.497Z,35.74
2022-08-03T06:50:58.496Z,35.77
2022-08-03T06:52:03.131Z,35.73
2022-08-03T06:52:58.638Z,35.62
2022-08-03T06:53:58.728Z,35.66
2022-08-03T06:54:58.831Z,35.81
2022-08-03T06:55:58.913Z,36.15
2022-08-03T06:56:58.984Z,36.33
2022-08-03T06:58:00.186Z,36.59
2022-08-03T06:58:59.115Z,37.08
2022-08-03T07:00:10.197Z,37.50
2022-08-03T07:00:59.369Z,37.88
2022-08-03T07:01:59.365Z,37.70
2022-08-03T07:02:59.417Z,37.11
2022-08-03T07:03:59.519Z,36.75
2022-08-03T07:04:59.609Z,36.72
2022-08-03T07:05:59.670Z,36.78
2022-08-03T07:06:59.723Z,36.84
2022-08-03T07:07:59.799Z,37.16
2022-08-03T07:08:59.890Z,37.45
2022-08-03T07:09:59.995Z,37.66
2022-08-03T07:11:00.060Z,37.78
2022-08-03T07:12:00.168Z,37.87
2022-08-03T07:13:00.224Z,38.10
2022-08-03T07:14:00.316Z,38.43
2022-08-03T07:15:02.301Z,38.98
2022-08-03T07:16:00.487Z,38.86
2022-08-03T07:17:00.541Z,39.06
2022-08-03T07:18:00.617Z,38.79
2022-08-03T07:19:00.681Z,38.44
2022-08-03T07:20:00.773Z,38.74
2022-08-03T07:21:00.819Z,38.55
2022-08-03T07:22:02.179Z,38.49
2022-08-03T07:23:00.955Z,38.72
2022-08-03T07:24:01.053Z,38.30
2022-08-03T07:25:01.120Z,38.47
2022-08-03T07:26:01.180Z,38.71
2022-08-03T07:27:01.266Z,38.77
2022-08-03T07:28:01.345Z,38.02
2022-08-03T07:29:01.432Z,37.80
2022-08-03T07:30:01.541Z,38.21
2022-08-03T07:31:01.579Z,38.02
2022-08-03T07:32:01.661Z,37.46
2022-08-03T07:33:01.720Z,36.89
2022-08-03T07:34:01.798Z,36.71
2022-08-03T07:35:01.932Z,37.09
2022-08-03T07:36:01.997Z,37.65
2022-08-03T07:37:02.083Z,38.12
2022-08-03T07:38:02.177Z,38.68
2022-08-03T07:39:17.466Z,38.43
2022-08-03T07:40:02.471Z,38.04
2022-08-03T07:41:02.413Z,38.53
2022-08-03T07:42:02.490Z,39.06
2022-08-03T07:43:02.552Z,38.70
2022-08-03T07:44:02.648Z,37.96
2022-08-03T07:45:02.714Z,38.37
2022-08-03T07:46:02.799Z,38.74
2022-08-03T07:47:03.292Z,39.19
2022-08-03T07:48:02.951Z,39.96
2022-08-03T07:49:03.084Z,40.22
2022-08-03T07:50:03.144Z,40.03
2022-08-03T07:51:03.197Z,40.33
2022-08-03T07:52:03.277Z,40.49
2022-08-03T07:53:03.372Z,40.49
2022-08-03T07:54:03.443Z,39.97
2022-08-03T07:55:03.546Z,40.15
2022-08-03T07:56:03.605Z,40.79
2022-08-03T07:57:03.674Z,41.17
2022-08-03T07:58:03.758Z,41.28
2022-08-03T07:59:03.831Z,41.38
2022-08-03T08:00:03.975Z,41.82
2022-08-03T08:01:04.073Z,41.21
2022-08-03T08:02:04.051Z,41.19
2022-08-03T08:03:04.106Z,41.04
2022-08-03T08:04:04.182Z,40.29
2022-08-03T08:05:05.957Z,40.16
2022-08-03T08:06:04.366Z,40.19
2022-08-03T08:07:04.444Z,39.85
2022-08-03T08:08:04.527Z,39.20
2022-08-03T08:09:04.573Z,39.35
2022-08-03T08:10:04.682Z,39.82
2022-08-03T08:11:04.725Z,40.41
2022-08-03T08:12:04.806Z,41.19
2022-08-03T08:13:04.866Z,41.63
2022-08-03T08:14:04.942Z,41.97
2022-08-03T08:15:05.044Z,42.46
2022-08-03T08:16:05.128Z,42.96
2022-08-03T08:17:07.376Z,43.17
2022-08-03T08:18:05.290Z,42.79
2022-08-03T08:19:05.374Z,43.01
2022-08-03T08:20:05.470Z,42.77
2022-08-03T08:21:05.540Z,41.65
2022-08-03T08:22:05.621Z,40.85
2022-08-03T08:23:12.118Z,41.10
2022-08-03T08:24:11.441Z,41.36
2022-08-03T08:25:05.878Z,41.70
2022-08-03T08:26:05.960Z,41.48
2022-08-03T08:27:06.050Z,41.19
2022-08-03T08:28:31.804Z,41.53
2022-08-03T08:29:06.190Z,42.07
2022-08-03T08:30:11.544Z,42.54
2022-08-03T08:31:06.345Z,42.43
2022-08-03T08:32:06.422Z,42.79
2022-08-03T08:33:06.523Z,42.41
2022-08-03T08:34:06.615Z,41.21
2022-08-03T08:35:06.705Z,39.88
2022-08-03T08:36:06.783Z,38.95
2022-08-03T08:37:06.858Z,38.43
2022-08-03T08:38:06.937Z,38.68
2022-08-03T08:39:07.027Z,38.92
2022-08-03T08:40:07.113Z,39.51
2022-08-03T08:41:07.163Z,40.10
2022-08-03T08:42:07.250Z,40.76
2022-08-03T08:43:07.679Z,41.50
2022-08-03T08:44:07.434Z,41.31
2022-08-03T08:45:07.543Z,41.20
2022-08-03T08:46:07.616Z,41.76
2022-08-03T08:47:07.703Z,42.02
2022-08-03T08:48:08.495Z,42.08
2022-08-03T08:49:07.929Z,41.60
2022-08-03T08:50:27.065Z,41.36
2022-08-03T08:51:08.038Z,41.09
2022-08-03T08:52:25.497Z,40.33
2022-08-03T08:53:09.830Z,40.39
2022-08-03T08:54:08.268Z,40.63
2022-08-03T08:55:08.361Z,41.00
2022-08-03T08:56:08.447Z,41.46
2022-08-03T08:57:21.271Z,42.14
2022-08-03T08:58:08.615Z,42.83
2022-08-03T08:59:08.699Z,43.24
2022-08-03T09:00:08.793Z,42.77
2022-08-03T09:01:08.918Z,42.34
2022-08-03T09:02:08.930Z,41.65
2022-08-03T09:03:09.017Z,41.10
2022-08-03T09:04:09.098Z,41.28
2022-08-03T09:05:09.190Z,41.38
2022-08-03T09:06:09.237Z,41.41
2022-08-03T09:07:29.181Z,41.88
2022-08-03T09:08:09.377Z,42.00
2022-08-03T09:09:09.453Z,41.95
2022-08-03T09:10:12.921Z,41.96
2022-08-03T09:11:09.611Z,41.97
2022-08-03T09:12:38.808Z,42.26
2022-08-03T09:13:09.805Z,42.05
2022-08-03T09:14:09.850Z,41.58
2022-08-03T09:15:16.945Z,41.74
2022-08-03T09:16:10.022Z,42.33
2022-08-03T09:17:10.222Z,42.62
2022-08-03T09:18:10.171Z,42.43
2022-08-03T09:19:10.255Z,41.93
2022-08-03T09:20:10.356Z,40.76
2022-08-03T09:21:29.769Z,40.42
2022-08-03T09:22:10.504Z,40.53
2022-08-03T09:23:51.214Z,40.73
2022-08-03T09:24:25.666Z,39.68
2022-08-03T09:25:26.097Z,39.20
2022-08-03T09:26:10.786Z,39.70
2022-08-03T09:27:10.881Z,39.97
2022-08-03T09:28:10.967Z,40.78
2022-08-03T09:29:14.778Z,41.21
2022-08-03T09:30:33.098Z,41.42
2022-08-03T09:31:11.235Z,41.54
2022-08-03T09:32:11.290Z,41.95
2022-08-03T09:33:11.380Z,42.11
2022-08-03T09:34:11.437Z,42.38
2022-08-03T09:35:11.848Z,42.50
2022-08-03T09:36:11.577Z,42.48
2022-08-03T09:37:11.658Z,42.29
2022-08-03T09:38:12.653Z,42.20
2022-08-03T09:39:11.858Z,41.66
2022-08-03T09:40:11.966Z,41.70
2022-08-03T09:41:12.040Z,41.97
2022-08-03T09:42:14.448Z,42.08
2022-08-03T09:43:12.207Z,42.14
2022-08-03T09:44:24.314Z,42.38
2022-08-03T09:45:12.388Z,42.39
2022-08-03T09:46:12.435Z,42.79
2022-08-03T09:47:12.563Z,43.14
2022-08-03T09:48:12.587Z,43.50
2022-08-03T09:49:12.684Z,42.89
2022-08-03T09:50:12.768Z,42.23
2022-08-03T09:52:30.089Z,42.19
2022-08-03T09:52:49.857Z,41.67
2022-08-03T09:53:12.992Z,41.32
2022-08-03T09:54:20.325Z,41.29
2022-08-03T09:55:23.812Z,41.01
2022-08-03T09:56:41.058Z,41.14
2022-08-03T09:57:13.361Z,40.71
2022-08-03T09:58:13.360Z,40.61
2022-08-03T09:59:13.440Z,41.07
2022-08-03T10:00:13.593Z,41.53
2022-08-03T10:01:24.475Z,40.66
2022-08-03T10:02:13.632Z,40.58
2022-08-03T10:03:13.724Z,40.07
2022-08-03T10:04:13.778Z,40.18
2022-08-03T10:05:19.460Z,40.39
2022-08-03T10:06:13.929Z,39.75
2022-08-03T10:07:14.008Z,39.84
2022-08-03T10:08:14.078Z,39.70
2022-08-03T10:09:14.176Z,38.70
2022-08-03T10:10:29.080Z,38.25
2022-08-03T10:11:14.369Z,38.45
2022-08-03T10:12:14.432Z,39.10
2022-08-03T10:13:14.531Z,39.69
2022-08-03T10:14:14.625Z,40.34
2022-08-03T10:16:22.021Z,40.29
2022-08-03T10:16:29.534Z,39.44
2022-08-03T10:17:14.992Z,39.19
2022-08-03T10:18:14.920Z,39.14
2022-08-03T10:19:14.993Z,38.93
2022-08-03T10:20:15.104Z,38.49
2022-08-03T10:21:15.161Z,38.34
2022-08-03T10:22:15.255Z,38.67
2022-08-03T10:23:15.354Z,38.82
2022-08-03T10:24:15.441Z,38.95
2022-08-03T10:25:15.574Z,38.84
2022-08-03T10:26:15.583Z,38.84
2022-08-03T10:27:15.887Z,38.75
2022-08-03T10:28:15.755Z,39.02
2022-08-03T10:29:15.834Z,39.27
2022-08-03T10:30:15.938Z,39.22
2022-08-03T10:31:15.994Z,39.24
2022-08-03T10:32:16.089Z,39.53
2022-08-03T10:33:49.877Z,39.07
2022-08-03T10:34:16.268Z,38.12
2022-08-03T10:35:21.058Z,38.09
2022-08-03T10:36:16.408Z,37.85
2022-08-03T10:37:16.773Z,37.69
2022-08-03T10:38:16.537Z,37.34
2022-08-03T10:39:16.633Z,37.43
2022-08-03T10:40:39.649Z,37.46
2022-08-03T10:41:16.765Z,37.06
2022-08-03T10:42:16.846Z,36.55
2022-08-03T10:43:16.912Z,36.37
2022-08-03T10:44:16.968Z,36.52
2022-08-03T10:45:17.075Z,36.69
2022-08-03T10:46:17.184Z,36.72
2022-08-03T10:47:17.510Z,36.77
2022-08-03T10:48:17.292Z,36.60
2022-08-03T10:49:32.807Z,35.93
2022-08-03T10:50:17.458Z,35.73
2022-08-03T10:51:17.517Z,35.47
2022-08-03T10:52:31.363Z,35.52
2022-08-03T10:53:18.701Z,35.58
2022-08-03T10:54:17.775Z,35.56
2022-08-03T10:55:17.900Z,35.50
2022-08-03T10:56:20.354Z,35.39
2022-08-03T10:57:18.259Z,35.31
2022-08-03T10:58:30.665Z,35.39
2022-08-03T10:59:27.798Z,35.44
2022-08-03T11:00:18.266Z,35.36
2022-08-03T11:01:18.373Z,35.15
2022-08-03T11:02:18.391Z,34.98
2022-08-03T11:03:18.506Z,34.83
2022-08-03T11:04:18.548Z,34.84
2022-08-03T11:05:18.645Z,34.75
2022-08-03T11:06:18.709Z,34.67
2022-08-03T11:07:19.134Z,34.56
2022-08-03T11:08:18.877Z,34.38
2022-08-03T11:09:18.954Z,34.19
2022-08-03T11:10:19.061Z,34.36
2022-08-03T11:11:19.134Z,34.50
2022-08-03T11:12:19.215Z,34.69
2022-08-03T11:13:19.313Z,34.72
2022-08-03T11:14:19.393Z,34.87
2022-08-03T11:15:19.485Z,34.88
2022-08-03T11:16:22.030Z,34.98
2022-08-03T11:17:19.959Z,34.75
2022-08-03T11:18:19.677Z,34.50
2022-08-03T11:19:19.795Z,34.34
2022-08-03T11:20:19.873Z,34.21
2022-08-03T11:21:19.943Z,34.28
2022-08-03T11:22:20.019Z,34.34
2022-08-03T11:23:20.096Z,34.45
2022-08-03T11:24:20.164Z,34.33
2022-08-03T11:25:53.448Z,34.28
2022-08-03T11:26:20.340Z,34.50
2022-08-03T11:27:20.812Z,34.72
2022-08-03T11:28:20.509Z,34.90
2022-08-03T11:29:20.603Z,35.05
2022-08-03T11:30:20.704Z,35.13
2022-08-03T11:31:39.569Z,35.24
2022-08-03T11:32:20.855Z,35.22
2022-08-03T11:33:20.938Z,35.21
2022-08-03T11:34:20.986Z,35.24
2022-08-03T11:35:21.074Z,35.18
2022-08-03T11:36:32.102Z,35.10
2022-08-03T11:37:21.982Z,35.07
2022-08-03T11:38:21.260Z,34.94
2022-08-03T11:39:21.341Z,34.99
2022-08-03T11:40:21.416Z,35.12
2022-08-03T11:41:21.494Z,35.25
2022-08-03T11:42:21.542Z,35.42
2022-08-03T11:43:21.641Z,35.52
2022-08-03T11:44:21.689Z,35.36
2022-08-03T11:45:21.784Z,35.32
2022-08-03T11:46:28.590Z,35.43
2022-08-03T11:47:22.194Z,35.44
2022-08-03T11:48:21.981Z,35.54
2022-08-03T11:49:22.674Z,35.71
2022-08-03T11:50:22.157Z,35.85
2022-08-03T11:51:22.256Z,35.81
2022-08-03T11:52:26.760Z,35.84
2022-08-03T11:53:22.437Z,35.91
2022-08-03T11:54:22.520Z,35.93
2022-08-03T11:55:22.654Z,35.84
2022-08-03T11:56:22.676Z,35.87
2022-08-03T11:57:22.851Z,35.78
2022-08-03T11:59:22.196Z,35.74
2022-08-03T11:59:27.468Z,35.74
2022-08-03T12:00:27.553Z,35.78
2022-08-03T12:01:27.621Z,35.95
2022-08-03T12:02:27.695Z,35.85
2022-08-03T12:03:27.825Z,35.89
2022-08-03T12:04:27.870Z,35.99
2022-08-03T12:05:28.007Z,35.93
2022-08-03T12:06:28.033Z,35.96
2022-08-03T12:08:03.534Z,36.00
2022-08-03T12:08:28.223Z,36.08
2022-08-03T12:09:28.284Z,36.02
2022-08-03T12:10:28.367Z,36.03
2022-08-03T12:11:28.436Z,35.81
2022-08-03T12:12:28.511Z,35.85
2022-08-03T12:14:45.121Z,35.68
2022-08-03T12:14:56.076Z,35.71
2022-08-03T12:15:28.790Z,35.62
2022-08-03T12:16:29.072Z,35.46
2022-08-03T12:17:28.947Z,35.39
2022-08-03T12:18:28.999Z,35.40
2022-08-03T12:19:29.067Z,35.43
2022-08-03T12:20:31.311Z,35.52
2022-08-03T12:21:29.253Z,35.42
2022-08-03T12:22:29.316Z,35.46
2022-08-03T12:23:29.427Z,35.58
2022-08-03T12:24:29.518Z,35.68
2022-08-03T12:25:39.132Z,35.83
2022-08-03T12:26:29.696Z,35.83
2022-08-03T12:27:29.787Z,35.89
2022-08-03T12:28:37.930Z,35.92
2022-08-03T12:29:29.944Z,35.96
2022-08-03T12:30:30.034Z,36.02
2022-08-03T12:31:30.097Z,36.12
2022-08-03T12:32:30.187Z,36.15
2022-08-03T12:33:30.261Z,36.21
2022-08-03T12:34:30.851Z,36.12
2022-08-03T12:35:30.455Z,36.13
2022-08-03T12:36:30.505Z,36.11
2022-08-03T12:37:31.047Z,36.16
2022-08-03T12:38:30.682Z,36.31
2022-08-03T12:39:31.306Z,36.43
2022-08-03T12:40:32.000Z,36.40
2022-08-03T12:41:30.928Z,36.37
2022-08-03T12:42:30.997Z,36.33
2022-08-03T12:43:39.395Z,36.25
2022-08-03T12:44:31.187Z,36.00
2022-08-03T12:45:31.299Z,35.98
2022-08-03T12:46:31.364Z,35.81
2022-08-03T12:47:31.452Z,35.54
2022-08-03T12:48:31.519Z,35.44
2022-08-03T12:49:31.709Z,35.49
2022-08-03T12:50:32.010Z,35.55
2022-08-03T12:51:32.228Z,35.62
2022-08-03T12:52:31.874Z,35.62
2022-08-03T12:53:31.919Z,35.61